createdAt,value
2018-02-09T00:00:36.543Z,-4.40
2018-02-09T00:03:02.740Z,-4.50
2018-02-09T00:05:29.711Z,-4.50
2018-02-09T00:07:55.908Z,-4.50
2018-02-09T00:10:22.130Z,-4.60
2018-02-09T00:12:48.343Z,-4.60
2018-02-09T00:15:14.531Z,-4.60
2018-02-09T00:17:40.777Z,-4.60
2018-02-09T00:20:06.964Z,-4.70
2018-02-09T00:22:54.735Z,-4.70
2018-02-09T00:25:20.926Z,-4.70
2018-02-09T00:27:47.917Z,-4.70
2018-02-09T00:30:14.099Z,-4.70
2018-02-09T00:32:41.395Z,-4.70
2018-02-09T00:35:07.628Z,-4.80
2018-02-09T00:37:33.839Z,-4.80
2018-02-09T00:40:00.029Z,-4.70
2018-02-09T00:42:26.253Z,-4.70
2018-02-09T00:44:52.508Z,-4.60
2018-02-09T00:47:19.459Z,-4.60
2018-02-09T00:49:46.390Z,-4.60
2018-02-09T00:52:20.272Z,-4.50
2018-02-09T00:54:46.936Z,-4.50
2018-02-09T00:57:13.895Z,-4.30
2018-02-09T00:59:40.819Z,-4.30
2018-02-09T01:02:07.125Z,-4.30
2018-02-09T01:04:33.316Z,-4.20
2018-02-09T01:06:59.507Z,-4.30
2018-02-09T01:09:25.959Z,-4.30
2018-02-09T01:11:52.972Z,-4.30
2018-02-09T01:14:19.184Z,-4.40
2018-02-09T01:16:45.399Z,-4.40
2018-02-09T01:19:11.623Z,-4.40
2018-02-09T01:21:37.808Z,-4.50
2018-02-09T01:24:04.288Z,-4.50
2018-02-09T01:26:30.495Z,-4.50
2018-02-09T01:28:56.711Z,-4.50
2018-02-09T01:31:23.648Z,-4.60
2018-02-09T01:33:50.607Z,-4.60
2018-02-09T01:36:17.606Z,-4.60
2018-02-09T01:38:43.828Z,-4.60
2018-02-09T01:41:10.008Z,-4.60
2018-02-09T01:43:36.964Z,-4.60
2018-02-09T01:46:04.140Z,-4.60
2018-02-09T01:48:30.353Z,-4.70
2018-02-09T01:50:56.573Z,-4.70
2018-02-09T01:53:22.768Z,-4.70
2018-02-09T01:55:48.988Z,-4.70
2018-02-09T01:58:15.180Z,-4.60
2018-02-09T02:00:41.400Z,-4.70
2018-02-09T02:03:07.603Z,-4.70
2018-02-09T02:05:34.569Z,-4.70
2018-02-09T02:08:00.780Z,-4.80
2018-02-09T02:10:27.740Z,-4.70
2018-02-09T02:12:53.932Z,-4.80
2018-02-09T02:15:20.143Z,-4.70
2018-02-09T02:17:46.678Z,-4.80
2018-02-09T02:20:13.144Z,-4.80
2018-02-09T02:22:40.570Z,-4.80
2018-02-09T02:25:08.130Z,-4.90
2018-02-09T02:27:34.435Z,-4.90
2018-02-09T02:30:00.667Z,-4.80
2018-02-09T02:32:26.864Z,-4.90
2018-02-09T02:34:53.825Z,-4.90
2018-02-09T02:37:20.017Z,-4.90
2018-02-09T02:39:46.199Z,-4.90
2018-02-09T02:42:12.423Z,-4.90
2018-02-09T02:44:38.613Z,-4.90
2018-02-09T02:47:05.591Z,-4.90
2018-02-09T02:49:31.832Z,-4.90
2018-02-09T02:51:58.024Z,-4.90
2018-02-09T02:54:24.964Z,-4.90
2018-02-09T02:56:51.931Z,-4.90
2018-02-09T02:59:18.124Z,-4.90
2018-02-09T03:01:44.332Z,-4.90
2018-02-09T03:04:10.532Z,-4.90
2018-02-09T03:06:36.923Z,-4.90
2018-02-09T03:09:03.152Z,-4.90
2018-02-09T03:11:30.092Z,-4.80
2018-02-09T03:13:56.300Z,-4.90
2018-02-09T03:16:23.971Z,-4.90
2018-02-09T03:18:50.177Z,-4.90
2018-02-09T03:21:16.355Z,-4.90
2018-02-09T03:23:43.314Z,-5.10
2018-02-09T03:26:10.235Z,-5.10
2018-02-09T03:28:36.497Z,-5.10
2018-02-09T03:31:02.688Z,-5.10
2018-02-09T03:33:28.900Z,-5.10
2018-02-09T03:35:55.092Z,-5.10
2018-02-09T03:38:21.316Z,-5.10
2018-02-09T03:40:47.504Z,-5.10
2018-02-09T03:43:13.720Z,-5.10
2018-02-09T03:45:40.671Z,-5.10
2018-02-09T03:48:06.856Z,-5.20
2018-02-09T03:50:33.066Z,-5.10
2018-02-09T03:52:59.247Z,-5.10
2018-02-09T03:55:25.460Z,-5.10
2018-02-09T03:57:51.646Z,-5.20
2018-02-09T04:00:18.608Z,-5.20
2018-02-09T04:02:44.795Z,-5.20
2018-02-09T04:05:11.016Z,-5.30
2018-02-09T04:07:37.214Z,-5.30
2018-02-09T04:10:03.426Z,-5.30
2018-02-09T04:12:29.613Z,-5.30
2018-02-09T04:14:55.848Z,-5.30
2018-02-09T04:17:22.775Z,-5.30
2018-02-09T04:19:48.969Z,-5.30
2018-02-09T04:22:15.171Z,-5.20
2018-02-09T04:24:41.368Z,-5.20
2018-02-09T04:27:07.584Z,-5.10
2018-02-09T04:29:33.780Z,-5.10
2018-02-09T04:32:00.053Z,-5.20
2018-02-09T04:34:26.240Z,-5.20
2018-02-09T04:36:52.440Z,-5.20
2018-02-09T04:39:19.371Z,-5.10
2018-02-09T04:41:46.349Z,-5.10
2018-02-09T04:44:12.540Z,-5.20
2018-02-09T04:46:39.484Z,-5.10
2018-02-09T04:49:06.431Z,-5.10
2018-02-09T04:51:32.611Z,-5.10
2018-02-09T04:53:58.832Z,-5.10
2018-02-09T04:56:25.023Z,-5.10
2018-02-09T04:58:51.977Z,-5.00
2018-02-09T05:01:18.904Z,-5.10
2018-02-09T05:03:45.111Z,-5.10
2018-02-09T05:06:11.300Z,-5.10
2018-02-09T05:08:37.512Z,-5.20
2018-02-09T05:11:04.440Z,-5.30
2018-02-09T05:13:30.661Z,-5.40
2018-02-09T05:15:56.849Z,-5.40
2018-02-09T05:18:23.064Z,-5.40
2018-02-09T05:20:49.248Z,-5.50
2018-02-09T05:23:15.463Z,-5.50
2018-02-09T05:25:41.643Z,-5.50
2018-02-09T05:28:07.843Z,-5.60
2018-02-09T05:30:34.795Z,-5.60
2018-02-09T05:33:01.728Z,-5.60
2018-02-09T05:35:28.692Z,-5.60
2018-02-09T05:37:55.627Z,-5.60
2018-02-09T05:40:22.577Z,-5.60
2018-02-09T05:42:49.527Z,-5.70
2018-02-09T05:45:16.484Z,-5.70
2018-02-09T05:47:42.675Z,-5.70
2018-02-09T05:50:09.172Z,-5.70
2018-02-09T05:52:35.351Z,-5.80
2018-02-09T05:55:01.531Z,-5.80
2018-02-09T05:57:27.767Z,-5.80
2018-02-09T05:59:53.955Z,-5.80
2018-02-09T06:02:20.903Z,-5.90
2018-02-09T06:04:47.831Z,-5.80
2018-02-09T06:07:14.779Z,-5.70
2018-02-09T06:09:41.771Z,-5.70
2018-02-09T06:12:07.991Z,-5.70
2018-02-09T06:14:34.179Z,-5.60
2018-02-09T06:17:01.140Z,-5.40
2018-02-09T06:19:28.073Z,-5.30
2018-02-09T06:21:55.063Z,-5.30
2018-02-09T06:24:21.271Z,-5.30
2018-02-09T06:26:47.468Z,-5.20
2018-02-09T06:29:13.675Z,-5.20
2018-02-09T06:31:39.864Z,-5.20
2018-02-09T06:34:06.073Z,-5.20
2018-02-09T06:36:33.003Z,-5.10
2018-02-09T06:38:59.216Z,-5.10
2018-02-09T06:41:26.159Z,-5.00
2018-02-09T06:43:52.403Z,-5.00
2018-02-09T06:46:19.350Z,-5.00
2018-02-09T06:48:45.544Z,-5.00
2018-02-09T06:51:11.759Z,-5.00
2018-02-09T06:53:38.012Z,-5.00
2018-02-09T06:56:04.227Z,-4.90
2018-02-09T06:58:30.411Z,-5.00
2018-02-09T07:00:57.383Z,-5.00
2018-02-09T07:03:23.563Z,-5.00
2018-02-09T07:05:49.780Z,-5.00
2018-02-09T07:08:15.963Z,-5.00
2018-02-09T07:10:42.160Z,-4.90
2018-02-09T07:13:09.139Z,-4.90
2018-02-09T07:15:35.336Z,-4.90
2018-02-09T07:18:02.289Z,-4.90
2018-02-09T07:20:29.223Z,-4.80
2018-02-09T07:22:55.456Z,-4.80
2018-02-09T07:25:22.414Z,-4.80
2018-02-09T07:27:49.380Z,-4.80
2018-02-09T07:30:15.581Z,-4.90
2018-02-09T07:32:42.581Z,-4.90
2018-02-09T07:35:08.785Z,-4.90
2018-02-09T07:37:35.045Z,-5.00
2018-02-09T07:40:01.261Z,-4.90
2018-02-09T07:42:27.476Z,-5.00
2018-02-09T07:44:53.763Z,-5.00
2018-02-09T07:47:20.695Z,-5.10
2018-02-09T07:49:47.639Z,-5.10
2018-02-09T07:52:13.883Z,-5.20
2018-02-09T07:54:40.097Z,-5.20
2018-02-09T07:57:06.278Z,-5.20
2018-02-09T07:59:32.496Z,-5.20
2018-02-09T08:01:59.447Z,-5.20
2018-02-09T08:04:25.696Z,-5.20
2018-02-09T08:06:51.888Z,-5.20
2018-02-09T08:09:18.835Z,-5.30
2018-02-09T08:11:45.781Z,-5.30
2018-02-09T08:14:12.739Z,-5.30
2018-02-09T08:16:38.975Z,-5.30
2018-02-09T08:19:05.892Z,-5.20
2018-02-09T08:21:32.859Z,-5.20
2018-02-09T08:23:59.047Z,-5.30
2018-02-09T08:26:25.256Z,-5.20
2018-02-09T08:28:51.457Z,-5.20
2018-02-09T08:31:17.663Z,-5.00
2018-02-09T08:33:44.592Z,-5.00
2018-02-09T08:36:10.910Z,-5.00
2018-02-09T08:38:37.840Z,-5.00
2018-02-09T08:41:04.143Z,-5.00
2018-02-09T08:43:30.335Z,-5.00
2018-02-09T08:45:57.367Z,-4.90
2018-02-09T08:48:24.291Z,-5.00
2018-02-09T08:50:50.480Z,-5.00
2018-02-09T08:53:16.688Z,-5.00
2018-02-09T08:55:43.624Z,-5.10
2018-02-09T08:58:09.827Z,-5.10
2018-02-09T09:00:36.015Z,-5.00
2018-02-09T09:03:02.271Z,-4.90
2018-02-09T09:05:28.457Z,-4.90
2018-02-09T09:07:55.400Z,-4.90
2018-02-09T09:10:22.333Z,-4.80
2018-02-09T09:12:49.282Z,-4.80
2018-02-09T09:15:15.472Z,-4.80
2018-02-09T09:17:41.664Z,-4.80
2018-02-09T09:20:07.871Z,-4.80
2018-02-09T09:22:34.801Z,-4.60
2018-02-09T09:25:01.747Z,-4.60
2018-02-09T09:27:27.946Z,-4.60
2018-02-09T09:29:54.228Z,-4.70
2018-02-09T09:32:20.447Z,-4.60
2018-02-09T09:34:46.659Z,-4.60
2018-02-09T09:37:12.852Z,-4.50
2018-02-09T09:39:39.051Z,-4.50
2018-02-09T09:42:05.292Z,-4.50
2018-02-09T09:44:31.479Z,-4.50
2018-02-09T09:46:57.687Z,-4.50
2018-02-09T09:49:23.876Z,-4.40
2018-02-09T09:51:50.083Z,-4.40
2018-02-09T09:54:17.076Z,-4.30
2018-02-09T09:56:43.279Z,-4.30
2018-02-09T09:59:09.460Z,-4.30
2018-02-09T10:01:35.679Z,-4.20
2018-02-09T10:04:01.872Z,-4.20
2018-02-09T10:06:28.079Z,-4.10
2018-02-09T10:08:55.085Z,-4.10
2018-02-09T10:11:21.292Z,-4.10
2018-02-09T10:13:47.482Z,-4.10
2018-02-09T10:16:14.444Z,-4.10
2018-02-09T10:18:40.642Z,-4.20
2018-02-09T10:21:06.912Z,-4.10
2018-02-09T10:23:33.135Z,-4.10
2018-02-09T10:25:59.324Z,-4.10
2018-02-09T10:28:25.539Z,-4.00
2018-02-09T10:30:51.736Z,-3.90
2018-02-09T10:33:17.952Z,-3.80
2018-02-09T10:35:44.152Z,-3.60
2018-02-09T10:38:11.104Z,-3.40
2018-02-09T10:40:37.296Z,-3.40
2018-02-09T10:43:03.524Z,-3.40
2018-02-09T10:45:29.792Z,-3.30
2018-02-09T10:47:56.739Z,-3.20
2018-02-09T10:50:23.664Z,-3.20
2018-02-09T10:52:49.871Z,-3.20
2018-02-09T10:55:16.051Z,-3.10
2018-02-09T10:57:42.239Z,-3.10
2018-02-09T11:00:08.456Z,-2.90
2018-02-09T11:02:34.648Z,-2.70
2018-02-09T11:05:00.868Z,-2.60
2018-02-09T11:07:27.047Z,-2.50
2018-02-09T11:09:53.275Z,-2.20
2018-02-09T11:12:20.363Z,-2.10
2018-02-09T11:14:47.316Z,-2.40
2018-02-09T11:17:13.536Z,-2.40
2018-02-09T11:19:40.488Z,-2.60
2018-02-09T11:22:06.761Z,-2.70
2018-02-09T11:24:32.976Z,-2.60
2018-02-09T11:26:59.163Z,-2.40
2018-02-09T11:29:26.099Z,-2.40
2018-02-09T11:31:52.316Z,-2.40
2018-02-09T11:34:18.511Z,-2.20
2018-02-09T11:36:44.723Z,-2.00
2018-02-09T11:39:10.912Z,-1.70
2018-02-09T11:41:37.884Z,-1.30
2018-02-09T11:44:04.072Z,-1.30
2018-02-09T11:46:30.281Z,-1.20
2018-02-09T11:48:56.471Z,-1.20
2018-02-09T11:51:22.683Z,-1.10
2018-02-09T11:53:49.612Z,-0.50
2018-02-09T11:56:15.927Z,-0.50
2018-02-09T11:58:42.113Z,-0.40
2018-02-09T12:01:08.308Z,-0.50
2018-02-09T12:03:35.252Z,-0.40
2018-02-09T12:06:02.204Z,-0.60
2018-02-09T12:08:29.164Z,-0.70
2018-02-09T12:10:56.087Z,-0.60
2018-02-09T12:13:23.057Z,-0.40
2018-02-09T12:15:49.982Z,0.10
2018-02-09T12:18:16.928Z,0.20
2018-02-09T12:20:43.865Z,0.50
2018-02-09T12:23:10.076Z,0.50
2018-02-09T12:25:36.279Z,0.80
2018-02-09T12:28:02.483Z,0.80
2018-02-09T12:30:28.672Z,0.70
2018-02-09T12:32:54.888Z,0.80
2018-02-09T12:35:21.077Z,0.80
2018-02-09T12:37:47.272Z,1.10
2018-02-09T12:40:14.224Z,1.80
2018-02-09T12:42:40.464Z,1.80
2018-02-09T12:45:07.413Z,1.10
2018-02-09T12:47:34.344Z,1.30
2018-02-09T12:50:01.312Z,1.40
2018-02-09T12:52:27.491Z,1.30
2018-02-09T12:54:53.703Z,1.40
2018-02-09T12:57:19.896Z,1.30
2018-02-09T12:59:46.075Z,1.10
2018-02-09T13:02:12.288Z,1.20
2018-02-09T13:04:38.467Z,1.40
2018-02-09T13:07:05.412Z,1.10
2018-02-09T13:09:32.339Z,0.90
2018-02-09T13:11:58.551Z,0.90
2018-02-09T13:14:37.199Z,0.80
2018-02-09T13:17:04.151Z,0.40
2018-02-09T13:19:31.084Z,0.10
2018-02-09T13:21:57.298Z,0.10
2018-02-09T13:24:23.532Z,-0.30
2018-02-09T13:26:49.711Z,-0.60
2018-02-09T13:29:15.933Z,-0.80
2018-02-09T13:31:42.148Z,-0.80
2018-02-09T13:34:09.100Z,-1.00
2018-02-09T13:39:35.161Z,-1.20
2018-02-09T13:42:01.381Z,-1.10
2018-02-09T13:44:29.331Z,-1.20
2018-02-09T13:46:56.260Z,-1.10
2018-02-09T13:49:22.568Z,-1.20
2018-02-09T13:51:48.754Z,-1.00
2018-02-09T13:54:14.992Z,-1.00
2018-02-09T13:56:41.184Z,-1.10
2018-02-09T13:59:08.135Z,-1.50
2018-02-09T14:01:35.131Z,-1.60
2018-02-09T14:04:01.353Z,-1.60
2018-02-09T14:06:27.548Z,-1.70
2018-02-09T14:08:54.490Z,-1.70
2018-02-09T14:11:21.416Z,-1.70
2018-02-09T14:13:47.628Z,-1.70
2018-02-09T14:16:13.824Z,-1.70
2018-02-09T14:18:40.021Z,-1.70
2018-02-09T14:21:06.967Z,-1.60
2018-02-09T14:23:33.891Z,-1.60
2018-02-09T14:26:00.103Z,-1.60
2018-02-09T14:28:26.288Z,-1.60
2018-02-09T14:30:52.506Z,-1.60
2018-02-09T14:33:19.436Z,-1.50
2018-02-09T14:35:46.383Z,-1.50
2018-02-09T14:38:13.307Z,-1.50
2018-02-09T14:40:39.535Z,-1.50
2018-02-09T14:43:05.757Z,-1.50
2018-02-09T14:45:31.944Z,-1.50
2018-02-09T14:47:58.153Z,-1.50
2018-02-09T14:50:25.079Z,-1.50
2018-02-09T14:52:51.288Z,-1.50
2018-02-09T14:55:17.479Z,-1.50
2018-02-09T14:57:43.695Z,-1.40
2018-02-09T15:00:09.887Z,-1.40
2018-02-09T15:02:37.609Z,-1.40
2018-02-09T15:05:03.795Z,-1.40
2018-02-09T15:07:30.751Z,-1.50
2018-02-09T15:09:57.688Z,-1.50
2018-02-09T15:12:24.647Z,-1.40
2018-02-09T15:14:50.857Z,-1.50
2018-02-09T15:17:17.067Z,-1.50
2018-02-09T15:19:43.271Z,-1.60
2018-02-09T15:22:09.479Z,-1.60
2018-02-09T15:24:35.690Z,-1.60
2018-02-09T15:27:02.620Z,-1.60
2018-02-09T15:29:29.576Z,-1.60
2018-02-09T15:31:56.504Z,-1.60
2018-02-09T15:34:22.744Z,-1.60
2018-02-09T15:36:49.672Z,-1.60
2018-02-09T15:39:15.892Z,-1.60
2018-02-09T15:41:42.104Z,-1.60
2018-02-09T15:44:08.336Z,-1.60
2018-02-09T15:46:34.524Z,-1.60
2018-02-09T15:49:00.719Z,-1.60
2018-02-09T15:51:26.912Z,-1.50
2018-02-09T15:53:53.119Z,-1.60
2018-02-09T15:56:19.312Z,-1.50
2018-02-09T15:58:45.519Z,-1.50
2018-02-09T16:01:11.711Z,-1.50
2018-02-09T16:03:37.976Z,-1.50
2018-02-09T16:06:04.188Z,-1.50
2018-02-09T16:08:30.376Z,-1.50
2018-02-09T16:10:57.325Z,-1.50
2018-02-09T16:13:23.518Z,-1.50
2018-02-09T16:15:49.732Z,-1.50
2018-02-09T16:18:15.944Z,-1.50
2018-02-09T16:20:42.152Z,-1.50
2018-02-09T16:23:08.345Z,-1.40
2018-02-09T16:25:35.308Z,-1.40
2018-02-09T16:28:02.235Z,-1.40
2018-02-09T16:30:28.488Z,-1.40
2018-02-09T16:32:54.696Z,-1.40
2018-02-09T16:35:21.633Z,-1.40
2018-02-09T16:37:47.845Z,-1.40
2018-02-09T16:40:14.032Z,-1.40
2018-02-09T16:42:40.319Z,-1.40
2018-02-09T16:45:06.512Z,-1.40
2018-02-09T16:47:32.724Z,-1.40
2018-02-09T16:49:58.928Z,-1.40
2018-02-09T16:52:25.880Z,-1.40
2018-02-09T16:54:52.091Z,-1.40
2018-02-09T16:57:19.019Z,-1.40
2018-02-09T16:59:45.224Z,-1.50
2018-02-09T17:02:11.408Z,-1.40
2018-02-09T17:04:38.368Z,-1.40
2018-02-09T17:07:04.551Z,-1.40
2018-02-09T17:09:30.761Z,-1.40
2018-02-09T17:11:56.944Z,-1.40
2018-02-09T17:14:23.179Z,-1.40
2018-02-09T17:16:49.394Z,-1.40
2018-02-09T17:19:16.326Z,-1.40
2018-02-09T17:21:42.909Z,-1.40
2018-02-09T17:24:09.111Z,-1.40
2018-02-09T17:26:36.056Z,-1.40
2018-02-09T17:29:02.988Z,-1.30
2018-02-09T17:31:29.939Z,-1.30
2018-02-09T17:33:56.867Z,-1.40
2018-02-09T17:36:23.075Z,-1.40
2018-02-09T17:38:49.255Z,-1.40
2018-02-09T17:41:15.822Z,-1.30
2018-02-09T17:43:42.026Z,-1.30
2018-02-09T17:46:08.247Z,-1.30
2018-02-09T17:48:34.496Z,-1.30
2018-02-09T17:51:00.699Z,-1.30
2018-02-09T17:53:27.636Z,-1.30
2018-02-09T17:55:54.583Z,-1.30
2018-02-09T17:58:21.531Z,-1.30
2018-02-09T18:00:48.486Z,-1.30
2018-02-09T18:03:15.425Z,-1.30
2018-02-09T18:05:41.667Z,-1.30
2018-02-09T18:08:07.847Z,-1.30
2018-02-09T18:10:34.036Z,-1.20
2018-02-09T18:13:00.247Z,-1.30
2018-02-09T18:15:26.466Z,-1.20
2018-02-09T18:17:53.424Z,-1.30
2018-02-09T18:20:19.607Z,-1.30
2018-02-09T18:22:45.811Z,-1.30
2018-02-09T18:25:12.000Z,-1.30
2018-02-09T18:27:38.951Z,-1.30
2018-02-09T18:30:05.887Z,-1.30
2018-02-09T18:32:32.847Z,-1.30
2018-02-09T18:34:59.788Z,-1.20
2018-02-09T18:37:26.719Z,-1.20
2018-02-09T18:39:53.663Z,-1.20
2018-02-09T18:42:20.616Z,-1.20
2018-02-09T18:44:47.639Z,-1.20
2018-02-09T18:47:13.832Z,-1.20
2018-02-09T18:49:40.048Z,-1.20
2018-02-09T18:52:06.251Z,-1.20
2018-02-09T18:54:33.212Z,-1.20
2018-02-09T18:56:59.404Z,-1.10
2018-02-09T18:59:25.616Z,-1.10
2018-02-09T19:01:51.836Z,-1.10
2018-02-09T19:04:18.035Z,-1.10
2018-02-09T19:06:44.219Z,-1.10
2018-02-09T19:09:10.429Z,-1.10
2018-02-09T19:11:36.625Z,-1.20
2018-02-09T19:14:02.874Z,-1.10
2018-02-09T19:16:29.055Z,-1.10
2018-02-09T19:18:55.995Z,-1.10
2018-02-09T19:21:22.924Z,-1.10
2018-02-09T19:23:49.136Z,-1.10
2018-02-09T19:26:15.352Z,-1.10
2018-02-09T19:28:41.539Z,-1.10
2018-02-09T19:31:08.553Z,-1.00
2018-02-09T19:33:34.757Z,-1.00
2018-02-09T19:36:01.052Z,-1.00
2018-02-09T19:38:27.244Z,-1.00
2018-02-09T19:40:53.457Z,-1.00
2018-02-09T19:43:19.672Z,-1.00
2018-02-09T19:45:45.875Z,-0.90
2018-02-09T19:48:12.123Z,-0.90
2018-02-09T19:50:38.331Z,-0.90
2018-02-09T19:53:04.540Z,-0.90
2018-02-09T19:55:31.466Z,-0.90
2018-02-09T19:57:57.688Z,-0.90
2018-02-09T20:00:23.888Z,-0.90
2018-02-09T20:02:50.097Z,-0.90
2018-02-09T20:05:16.287Z,-0.90
2018-02-09T20:07:42.496Z,-0.90
2018-02-09T20:10:08.708Z,-0.90
2018-02-09T20:12:34.923Z,-0.90
2018-02-09T20:15:01.159Z,-0.90
2018-02-09T20:17:27.339Z,-0.90
2018-02-09T20:19:54.295Z,-0.90
2018-02-09T20:22:21.219Z,-0.90
2018-02-09T20:24:47.432Z,-0.90
2018-02-09T20:27:13.610Z,-0.90
2018-02-09T20:29:39.819Z,-0.90
2018-02-09T20:32:06.747Z,-1.00
2018-02-09T20:34:32.959Z,-1.00
2018-02-09T20:36:59.158Z,-1.00
2018-02-09T20:39:25.552Z,-1.00
2018-02-09T20:41:52.504Z,-1.00
2018-02-09T20:44:19.463Z,-1.00
2018-02-09T20:46:45.656Z,-1.00
2018-02-09T20:49:11.904Z,-1.00
2018-02-09T20:51:38.841Z,-1.10
2018-02-09T20:54:05.830Z,-1.10
2018-02-09T20:56:32.024Z,-1.10
2018-02-09T20:58:58.996Z,-1.10
2018-02-09T21:01:25.183Z,-1.20
2018-02-09T21:03:51.367Z,-1.10
2018-02-09T21:06:17.588Z,-1.10
2018-02-09T21:08:43.788Z,-1.20
2018-02-09T21:11:10.743Z,-1.10
2018-02-09T21:13:36.936Z,-1.20
2018-02-09T21:16:03.156Z,-1.10
2018-02-09T21:18:29.341Z,-1.10
2018-02-09T21:20:55.544Z,-1.00
2018-02-09T21:23:22.467Z,-1.00
2018-02-09T21:25:48.684Z,-1.00
2018-02-09T21:28:14.867Z,-1.00
2018-02-09T21:30:41.076Z,-0.90
2018-02-09T21:33:08.000Z,-1.00
2018-02-09T21:35:34.193Z,-1.00
2018-02-09T21:38:00.399Z,-0.90
2018-02-09T21:40:26.585Z,-0.90
2018-02-09T21:42:52.817Z,-0.90
2018-02-09T21:45:19.008Z,-0.80
2018-02-09T21:47:45.220Z,-0.80
2018-02-09T21:50:11.408Z,-0.80
2018-02-09T21:52:37.623Z,-0.80
2018-02-09T21:55:03.824Z,-0.80
2018-02-09T21:57:30.033Z,-0.80
2018-02-09T21:59:56.222Z,-0.80
2018-02-09T22:02:23.171Z,-0.80
2018-02-09T22:04:49.356Z,-0.80
2018-02-09T22:07:15.565Z,-0.80
2018-02-09T22:09:41.756Z,-0.80
2018-02-09T22:12:08.712Z,-0.80
2018-02-09T22:14:34.936Z,-0.80
2018-02-09T22:17:01.895Z,-0.80
2018-02-09T22:19:28.823Z,-0.70
2018-02-09T22:21:55.755Z,-0.80
2018-02-09T22:24:22.712Z,-0.80
2018-02-09T22:26:50.619Z,-0.80
2018-02-09T22:29:16.820Z,-0.80
2018-02-09T22:31:43.758Z,-0.80
2018-02-09T22:34:10.753Z,-0.80
2018-02-09T22:36:36.935Z,-0.80
2018-02-09T22:39:03.927Z,-0.90
2018-02-09T22:41:30.135Z,-0.90
2018-02-09T22:43:56.336Z,-0.90
2018-02-09T22:46:23.332Z,-0.90
2018-02-09T22:48:49.543Z,-1.00
2018-02-09T22:51:15.731Z,-1.00
2018-02-09T22:53:41.939Z,-0.90
2018-02-09T22:56:08.156Z,-0.90
2018-02-09T22:58:34.704Z,-1.00
2018-02-09T23:01:00.947Z,-1.00
2018-02-09T23:03:27.136Z,-1.00
2018-02-09T23:05:53.347Z,-1.00
2018-02-09T23:08:19.555Z,-1.00
2018-02-09T23:10:46.514Z,-1.00
2018-02-09T23:13:13.445Z,-1.00
2018-02-09T23:15:40.479Z,-1.00
2018-02-09T23:18:06.667Z,-1.00
2018-02-09T23:20:32.875Z,-1.00
2018-02-09T23:22:59.068Z,-1.00
2018-02-09T23:25:26.024Z,-0.90
2018-02-09T23:27:52.952Z,-0.90
2018-02-09T23:30:19.200Z,-0.90
2018-02-09T23:32:46.127Z,-0.80
2018-02-09T23:35:12.320Z,-0.80
2018-02-09T23:37:38.531Z,-0.80
2018-02-09T23:40:04.727Z,-0.80
2018-02-09T23:42:31.691Z,-0.80
2018-02-09T23:44:57.875Z,-0.80
2018-02-09T23:47:24.086Z,-0.70
2018-02-09T23:49:50.268Z,-0.70
2018-02-09T23:52:17.215Z,-0.70
2018-02-09T23:54:44.143Z,-0.70
2018-02-09T23:57:10.366Z,-0.70
2018-02-09T23:59:36.560Z,-0.70
